sensor_id;sensor_type;location;lat;lon;timestamp;pressure;altitude;pressure_sealevel;temperature;humidity
80938;BME280;70395;51.382;7.074;2024-02-14T00:02:24;100353.47;;;10.62;57.46
80938;BME280;70395;51.382;7.074;2024-02-14T00:04:55;100365.06;;;10.63;57.25
80938;BME280;70395;51.382;7.074;2024-02-14T00:07:21;100356.84;;;10.64;57.25
80938;BME280;70395;51.382;7.074;2024-02-14T00:09:48;100356.16;;;10.62;57.42
80938;BME280;70395;51.382;7.074;2024-02-14T00:12:14;100345.59;;;10.61;57.32
80938;BME280;70395;51.382;7.074;2024-02-14T00:14:40;100352.78;;;10.60;57.19
80938;BME280;70395;51.382;7.074;2024-02-14T00:17:06;100361.69;;;10.61;57.26
80938;BME280;70395;51.382;7.074;2024-02-14T00:19:32;100359.84;;;10.61;57.79
80938;BME280;70395;51.382;7.074;2024-02-14T00:21:58;100355.06;;;10.55;57.79
80938;BME280;70395;51.382;7.074;2024-02-14T00:24:24;100354.06;;;10.46;58.40
80938;BME280;70395;51.382;7.074;2024-02-14T00:26:52;100342.66;;;10.34;59.60
80938;BME280;70395;51.382;7.074;2024-02-14T00:29:18;100347.59;;;10.19;60.21
80938;BME280;70395;51.382;7.074;2024-02-14T00:31:44;100344.38;;;10.05;60.40
80938;BME280;70395;51.382;7.074;2024-02-14T00:34:10;100343.66;;;9.93;61.19
80938;BME280;70395;51.382;7.074;2024-02-14T00:36:36;100336.34;;;9.85;61.17
80938;BME280;70395;51.382;7.074;2024-02-14T00:39:02;100332.66;;;9.76;61.56
80938;BME280;70395;51.382;7.074;2024-02-14T00:41:28;100331.41;;;9.71;61.62
80938;BME280;70395;51.382;7.074;2024-02-14T00:43:56;100324.91;;;9.63;61.98
80938;BME280;70395;51.382;7.074;2024-02-14T00:46:22;100336.72;;;9.61;62.28
80938;BME280;70395;51.382;7.074;2024-02-14T00:48:48;100340.53;;;9.58;62.10
80938;BME280;70395;51.382;7.074;2024-02-14T00:51:14;100333.47;;;9.57;62.86
80938;BME280;70395;51.382;7.074;2024-02-14T00:53:39;100341.66;;;9.55;62.63
80938;BME280;70395;51.382;7.074;2024-02-14T00:56:06;100332.06;;;9.53;62.75
80938;BME280;70395;51.382;7.074;2024-02-14T00:58:31;100336.56;;;9.52;63.30
80938;BME280;70395;51.382;7.074;2024-02-14T01:00:57;100329.81;;;9.48;63.25
80938;BME280;70395;51.382;7.074;2024-02-14T01:03:23;100322.91;;;9.45;63.49
80938;BME280;70395;51.382;7.074;2024-02-14T01:05:50;100326.53;;;9.44;63.43
80938;BME280;70395;51.382;7.074;2024-02-14T01:08:16;100328.38;;;9.44;63.90
80938;BME280;70395;51.382;7.074;2024-02-14T01:10:42;100320.63;;;9.41;63.93
80938;BME280;70395;51.382;7.074;2024-02-14T01:13:08;100309.94;;;9.41;63.76
80938;BME280;70395;51.382;7.074;2024-02-14T01:15:34;100309.06;;;9.40;63.59
80938;BME280;70395;51.382;7.074;2024-02-14T01:18:00;100309.22;;;9.39;63.80
80938;BME280;70395;51.382;7.074;2024-02-14T01:20:26;100313.03;;;9.36;64.23
80938;BME280;70395;51.382;7.074;2024-02-14T01:22:51;100305.13;;;9.34;64.19
80938;BME280;70395;51.382;7.074;2024-02-14T01:25:18;100306.22;;;9.32;64.27
80938;BME280;70395;51.382;7.074;2024-02-14T01:27:44;100312.44;;;9.32;64.45
80938;BME280;70395;51.382;7.074;2024-02-14T01:30:11;100308.91;;;9.32;64.57
80938;BME280;70395;51.382;7.074;2024-02-14T01:32:37;100306.13;;;9.33;64.83
80938;BME280;70395;51.382;7.074;2024-02-14T01:35:05;100302.16;;;9.38;64.67
80938;BME280;70395;51.382;7.074;2024-02-14T01:37:31;100293.28;;;9.37;64.68
80938;BME280;70395;51.382;7.074;2024-02-14T01:39:56;100295.84;;;9.39;64.83
80938;BME280;70395;51.382;7.074;2024-02-14T01:42:22;100300.19;;;9.40;64.73
80938;BME280;70395;51.382;7.074;2024-02-14T01:44:48;100298.09;;;9.43;64.68
80938;BME280;70395;51.382;7.074;2024-02-14T01:47:14;100290.78;;;9.45;64.72
80938;BME280;70395;51.382;7.074;2024-02-14T01:49:40;100282.59;;;9.47;64.95
80938;BME280;70395;51.382;7.074;2024-02-14T01:52:10;100294.00;;;9.49;65.10
80938;BME280;70395;51.382;7.074;2024-02-14T01:54:36;100288.53;;;9.51;65.38
80938;BME280;70395;51.382;7.074;2024-02-14T01:57:03;100292.75;;;9.53;65.02
80938;BME280;70395;51.382;7.074;2024-02-14T01:59:29;100282.59;;;9.57;64.86
80938;BME280;70395;51.382;7.074;2024-02-14T02:01:56;100276.84;;;9.62;65.09
80938;BME280;70395;51.382;7.074;2024-02-14T02:04:22;100288.25;;;9.64;65.06
80938;BME280;70395;51.382;7.074;2024-02-14T02:06:48;100278.97;;;9.68;64.71
80938;BME280;70395;51.382;7.074;2024-02-14T02:09:22;100279.25;;;9.75;64.57
80938;BME280;70395;51.382;7.074;2024-02-14T02:11:50;100284.31;;;9.78;64.91
80938;BME280;70395;51.382;7.074;2024-02-14T02:14:16;100291.22;;;9.80;64.72
80938;BME280;70395;51.382;7.074;2024-02-14T02:16:42;100292.63;;;9.85;64.50
80938;BME280;70395;51.382;7.074;2024-02-14T02:19:09;100296.88;;;9.87;64.59
80938;BME280;70395;51.382;7.074;2024-02-14T02:21:38;100288.69;;;9.89;64.53
80938;BME280;70395;51.382;7.074;2024-02-14T02:24:05;100285.03;;;9.90;64.48
80938;BME280;70395;51.382;7.074;2024-02-14T02:26:31;100285.56;;;9.94;64.26
80938;BME280;70395;51.382;7.074;2024-02-14T02:28:56;100288.66;;;9.99;63.82
80938;BME280;70395;51.382;7.074;2024-02-14T02:31:22;100286.41;;;10.04;64.13
80938;BME280;70395;51.382;7.074;2024-02-14T02:33:48;100301.19;;;10.08;63.85
80938;BME280;70395;51.382;7.074;2024-02-14T02:36:15;100287.38;;;10.13;63.62
80938;BME280;70395;51.382;7.074;2024-02-14T02:38:42;100295.84;;;10.18;63.39
80938;BME280;70395;51.382;7.074;2024-02-14T02:41:08;100298.94;;;10.23;63.32
80938;BME280;70395;51.382;7.074;2024-02-14T02:43:34;100295.81;;;10.28;63.29
80938;BME280;70395;51.382;7.074;2024-02-14T02:46:01;100283.81;;;10.32;62.92
80938;BME280;70395;51.382;7.074;2024-02-14T02:48:27;100304.13;;;10.35;63.19
80938;BME280;70395;51.382;7.074;2024-02-14T02:50:53;100296.66;;;10.39;62.87
80938;BME280;70395;51.382;7.074;2024-02-14T02:53:20;100306.94;;;10.43;62.67
80938;BME280;70395;51.382;7.074;2024-02-14T02:55:46;100303.66;;;10.50;62.55
80938;BME280;70395;51.382;7.074;2024-02-14T02:58:12;100292.69;;;10.53;62.77
80938;BME280;70395;51.382;7.074;2024-02-14T03:00:39;100292.25;;;10.57;62.60
80938;BME280;70395;51.382;7.074;2024-02-14T03:03:08;100300.84;;;10.61;62.31
80938;BME280;70395;51.382;7.074;2024-02-14T03:05:34;100284.31;;;10.66;62.26
80938;BME280;70395;51.382;7.074;2024-02-14T03:08:00;100277.81;;;10.68;62.22
80938;BME280;70395;51.382;7.074;2024-02-14T03:10:26;100291.78;;;10.72;62.39
80938;BME280;70395;51.382;7.074;2024-02-14T03:12:53;100284.72;;;10.71;62.10
80938;BME280;70395;51.382;7.074;2024-02-14T03:15:19;100276.00;;;10.69;62.70
80938;BME280;70395;51.382;7.074;2024-02-14T03:17:45;100272.59;;;10.67;62.54
80938;BME280;70395;51.382;7.074;2024-02-14T03:20:12;100283.63;;;10.64;62.79
80938;BME280;70395;51.382;7.074;2024-02-14T03:22:40;100286.75;;;10.59;63.04
80938;BME280;70395;51.382;7.074;2024-02-14T03:25:20;100281.97;;;10.53;63.44
80938;BME280;70395;51.382;7.074;2024-02-14T03:27:47;100280.13;;;10.53;63.48
80938;BME280;70395;51.382;7.074;2024-02-14T03:30:15;100280.28;;;10.52;63.26
80938;BME280;70395;51.382;7.074;2024-02-14T03:32:48;100286.63;;;10.51;63.56
80938;BME280;70395;51.382;7.074;2024-02-14T03:35:14;100285.66;;;10.52;63.82
80938;BME280;70395;51.382;7.074;2024-02-14T03:37:44;100274.78;;;10.53;63.60
80938;BME280;70395;51.382;7.074;2024-02-14T03:40:13;100294.81;;;10.59;63.63
80938;BME280;70395;51.382;7.074;2024-02-14T03:42:39;100280.38;;;10.60;63.73
80938;BME280;70395;51.382;7.074;2024-02-14T03:45:07;100287.44;;;10.61;63.92
80938;BME280;70395;51.382;7.074;2024-02-14T03:47:33;100285.63;;;10.62;63.95
80938;BME280;70395;51.382;7.074;2024-02-14T03:49:59;100293.78;;;10.60;64.57
80938;BME280;70395;51.382;7.074;2024-02-14T03:52:25;100287.56;;;10.59;64.18
80938;BME280;70395;51.382;7.074;2024-02-14T03:54:52;100286.75;;;10.59;64.42
80938;BME280;70395;51.382;7.074;2024-02-14T03:57:18;100279.00;;;10.56;65.14
80938;BME280;70395;51.382;7.074;2024-02-14T03:59:44;100284.66;;;10.53;64.94
80938;BME280;70395;51.382;7.074;2024-02-14T04:02:10;100283.06;;;10.50;65.31
80938;BME280;70395;51.382;7.074;2024-02-14T04:04:37;100284.50;;;10.44;65.36
80938;BME280;70395;51.382;7.074;2024-02-14T04:07:05;100291.81;;;10.42;65.82
80938;BME280;70395;51.382;7.074;2024-02-14T04:09:33;100298.75;;;10.45;65.57
80938;BME280;70395;51.382;7.074;2024-02-14T04:11:59;100299.31;;;10.48;65.34
80938;BME280;70395;51.382;7.074;2024-02-14T04:14:25;100287.31;;;10.53;65.28
80938;BME280;70395;51.382;7.074;2024-02-14T04:16:51;100291.41;;;10.57;65.45
80938;BME280;70395;51.382;7.074;2024-02-14T04:19:17;100300.84;;;10.61;65.34
80938;BME280;70395;51.382;7.074;2024-02-14T04:21:44;100297.88;;;10.64;64.97
80938;BME280;70395;51.382;7.074;2024-02-14T04:24:09;100307.03;;;10.72;65.20
80938;BME280;70395;51.382;7.074;2024-02-14T04:26:35;100295.03;;;10.76;65.45
80938;BME280;70395;51.382;7.074;2024-02-14T04:29:01;100305.16;;;10.82;65.13
80938;BME280;70395;51.382;7.074;2024-02-14T04:31:28;100291.97;;;10.89;64.86
80938;BME280;70395;51.382;7.074;2024-02-14T04:33:56;100296.75;;;10.95;65.03
80938;BME280;70395;51.382;7.074;2024-02-14T04:36:21;100301.69;;;11.00;64.98
80938;BME280;70395;51.382;7.074;2024-02-14T04:38:51;100306.59;;;11.04;64.75
80938;BME280;70395;51.382;7.074;2024-02-14T04:41:17;100318.59;;;11.10;64.68
80938;BME280;70395;51.382;7.074;2024-02-14T04:43:43;100318.13;;;11.15;64.64
80938;BME280;70395;51.382;7.074;2024-02-14T04:46:09;100311.47;;;11.19;64.62
80938;BME280;70395;51.382;7.074;2024-02-14T04:48:35;100320.09;;;11.23;64.48
80938;BME280;70395;51.382;7.074;2024-02-14T04:51:04;100307.19;;;11.26;64.31
80938;BME280;70395;51.382;7.074;2024-02-14T04:53:32;100306.91;;;11.30;64.43
80938;BME280;70395;51.382;7.074;2024-02-14T04:55:58;100319.47;;;11.29;64.44
80938;BME280;70395;51.382;7.074;2024-02-14T04:58:24;100323.00;;;11.30;64.50
80938;BME280;70395;51.382;7.074;2024-02-14T05:00:52;100304.22;;;11.30;64.72
80938;BME280;70395;51.382;7.074;2024-02-14T05:03:20;100304.06;;;11.31;64.80
80938;BME280;70395;51.382;7.074;2024-02-14T05:05:46;100307.44;;;11.33;64.68
80938;BME280;70395;51.382;7.074;2024-02-14T05:08:12;100302.78;;;11.35;64.57
80938;BME280;70395;51.382;7.074;2024-02-14T05:10:38;100309.66;;;11.38;64.60
80938;BME280;70395;51.382;7.074;2024-02-14T05:13:04;100323.81;;;11.40;64.57
80938;BME280;70395;51.382;7.074;2024-02-14T05:15:30;100329.69;;;11.44;64.53
80938;BME280;70395;51.382;7.074;2024-02-14T05:17:56;100324.03;;;11.47;64.29
80938;BME280;70395;51.382;7.074;2024-02-14T05:20:22;100332.78;;;11.49;64.27
80938;BME280;70395;51.382;7.074;2024-02-14T05:22:48;100336.72;;;11.55;63.87
80938;BME280;70395;51.382;7.074;2024-02-14T05:25:13;100333.00;;;11.56;64.29
80938;BME280;70395;51.382;7.074;2024-02-14T05:27:39;100336.53;;;11.56;64.31
80938;BME280;70395;51.382;7.074;2024-02-14T05:30:06;100339.22;;;11.56;64.14
80938;BME280;70395;51.382;7.074;2024-02-14T05:32:33;100340.78;;;11.59;64.32
80938;BME280;70395;51.382;7.074;2024-02-14T05:34:59;100342.59;;;11.58;64.36
80938;BME280;70395;51.382;7.074;2024-02-14T05:37:26;100349.28;;;11.54;64.69
80938;BME280;70395;51.382;7.074;2024-02-14T05:39:55;100342.66;;;11.48;64.74
80938;BME280;70395;51.382;7.074;2024-02-14T05:42:21;100348.78;;;11.41;64.82
80938;BME280;70395;51.382;7.074;2024-02-14T05:44:48;100354.31;;;11.39;65.18
80938;BME280;70395;51.382;7.074;2024-02-14T05:47:14;100349.22;;;11.36;65.46
80938;BME280;70395;51.382;7.074;2024-02-14T05:49:40;100349.56;;;11.33;65.62
80938;BME280;70395;51.382;7.074;2024-02-14T05:52:08;100345.34;;;11.30;65.79
80938;BME280;70395;51.382;7.074;2024-02-14T05:54:34;100351.53;;;11.31;65.82
80938;BME280;70395;51.382;7.074;2024-02-14T05:57:01;100351.22;;;11.34;65.47
80938;BME280;70395;51.382;7.074;2024-02-14T05:59:28;100348.41;;;11.35;65.79
80938;BME280;70395;51.382;7.074;2024-02-14T06:01:54;100349.09;;;11.37;65.65
80938;BME280;70395;51.382;7.074;2024-02-14T06:04:20;100346.94;;;11.41;65.70
80938;BME280;70395;51.382;7.074;2024-02-14T06:06:46;100347.50;;;11.45;65.25
80938;BME280;70395;51.382;7.074;2024-02-14T06:09:12;100352.56;;;11.48;65.58
80938;BME280;70395;51.382;7.074;2024-02-14T06:11:38;100344.38;;;11.49;65.67
80938;BME280;70395;51.382;7.074;2024-02-14T06:14:08;100355.97;;;11.50;66.01
80938;BME280;70395;51.382;7.074;2024-02-14T06:16:35;100362.88;;;11.53;65.67
80938;BME280;70395;51.382;7.074;2024-02-14T06:19:01;100358.19;;;11.55;66.08
80938;BME280;70395;51.382;7.074;2024-02-14T06:21:27;100364.09;;;11.58;65.96
80938;BME280;70395;51.382;7.074;2024-02-14T06:23:53;100378.22;;;11.60;66.14
80938;BME280;70395;51.382;7.074;2024-02-14T06:26:19;100361.81;;;11.64;65.95
80938;BME280;70395;51.382;7.074;2024-02-14T06:28:45;100357.97;;;11.66;66.18
80938;BME280;70395;51.382;7.074;2024-02-14T06:31:11;100373.09;;;11.67;65.86
80938;BME280;70395;51.382;7.074;2024-02-14T06:33:37;100372.78;;;11.70;65.89
80938;BME280;70395;51.382;7.074;2024-02-14T06:36:04;100366.25;;;11.73;65.96
80938;BME280;70395;51.382;7.074;2024-02-14T06:38:31;100378.72;;;11.74;66.24
80938;BME280;70395;51.382;7.074;2024-02-14T06:40:57;100383.53;;;11.70;66.29
80938;BME280;70395;51.382;7.074;2024-02-14T06:43:23;100375.34;;;11.72;66.25
80938;BME280;70395;51.382;7.074;2024-02-14T06:45:48;100380.69;;;11.72;66.32
80938;BME280;70395;51.382;7.074;2024-02-14T06:48:14;100386.91;;;11.73;66.82
80938;BME280;70395;51.382;7.074;2024-02-14T06:50:40;100378.16;;;11.70;66.37
80938;BME280;70395;51.382;7.074;2024-02-14T06:53:06;100373.47;;;11.73;66.40
80938;BME280;70395;51.382;7.074;2024-02-14T06:55:32;100380.69;;;11.72;66.78
80938;BME280;70395;51.382;7.074;2024-02-14T06:57:59;100388.59;;;11.74;66.80
80938;BME280;70395;51.382;7.074;2024-02-14T07:00:25;100383.22;;;11.74;66.59
80938;BME280;70395;51.382;7.074;2024-02-14T07:02:51;100402.03;;;11.74;66.70
80938;BME280;70395;51.382;7.074;2024-02-14T07:05:17;100386.59;;;11.76;66.83
80938;BME280;70395;51.382;7.074;2024-02-14T07:07:43;100396.19;;;11.78;66.49
80938;BME280;70395;51.382;7.074;2024-02-14T07:10:09;100394.91;;;11.82;66.56
80938;BME280;70395;51.382;7.074;2024-02-14T07:12:35;100396.13;;;11.88;66.44
80938;BME280;70395;51.382;7.074;2024-02-14T07:15:05;100408.41;;;11.91;66.29
80938;BME280;70395;51.382;7.074;2024-02-14T07:17:31;100414.50;;;11.93;66.29
80938;BME280;70395;51.382;7.074;2024-02-14T07:19:58;100415.88;;;11.97;66.10
80938;BME280;70395;51.382;7.074;2024-02-14T07:22:24;100414.72;;;12.00;66.22
80938;BME280;70395;51.382;7.074;2024-02-14T07:24:50;100427.56;;;12.06;66.06
80938;BME280;70395;51.382;7.074;2024-02-14T07:27:15;100419.88;;;12.11;66.38
80938;BME280;70395;51.382;7.074;2024-02-14T07:29:44;100421.03;;;12.09;66.17
80938;BME280;70395;51.382;7.074;2024-02-14T07:32:10;100419.19;;;12.09;66.05
80938;BME280;70395;51.382;7.074;2024-02-14T07:34:39;100422.03;;;12.08;66.02
80938;BME280;70395;51.382;7.074;2024-02-14T07:37:06;100423.41;;;12.12;65.89
80938;BME280;70395;51.382;7.074;2024-02-14T07:39:32;100422.44;;;12.13;65.89
80938;BME280;70395;51.382;7.074;2024-02-14T07:42:04;100420.72;;;12.12;65.90
80938;BME280;70395;51.382;7.074;2024-02-14T07:44:31;100425.25;;;12.11;66.08
80938;BME280;70395;51.382;7.074;2024-02-14T07:46:56;100429.09;;;12.09;66.08
80938;BME280;70395;51.382;7.074;2024-02-14T07:49:22;100420.34;;;12.07;66.34
80938;BME280;70395;51.382;7.074;2024-02-14T07:51:48;100433.78;;;12.07;66.09
80938;BME280;70395;51.382;7.074;2024-02-14T07:54:14;100436.31;;;12.08;66.04
80938;BME280;70395;51.382;7.074;2024-02-14T07:56:40;100437.84;;;12.11;66.52
80938;BME280;70395;51.382;7.074;2024-02-14T07:59:05;100445.75;;;12.12;66.44
80938;BME280;70395;51.382;7.074;2024-02-14T08:01:31;100427.66;;;12.14;65.96
80938;BME280;70395;51.382;7.074;2024-02-14T08:04:00;100446.19;;;12.18;66.16
80938;BME280;70395;51.382;7.074;2024-02-14T08:06:26;100441.66;;;12.18;66.18
80938;BME280;70395;51.382;7.074;2024-02-14T08:08:52;100443.88;;;12.23;66.00
80938;BME280;70395;51.382;7.074;2024-02-14T08:11:23;100443.72;;;12.24;65.78
80938;BME280;70395;51.382;7.074;2024-02-14T08:13:48;100441.88;;;12.25;66.11
80938;BME280;70395;51.382;7.074;2024-02-14T08:16:14;100443.41;;;12.27;65.61
80938;BME280;70395;51.382;7.074;2024-02-14T08:18:40;100439.56;;;12.30;65.56
80938;BME280;70395;51.382;7.074;2024-02-14T08:21:09;100434.88;;;12.32;65.83
80938;BME280;70395;51.382;7.074;2024-02-14T08:23:36;100438.25;;;12.34;65.57
80938;BME280;70395;51.382;7.074;2024-02-14T08:26:04;100436.13;;;12.38;65.46
80938;BME280;70395;51.382;7.074;2024-02-14T08:28:37;100439.19;;;12.43;65.42
80938;BME280;70395;51.382;7.074;2024-02-14T08:31:03;100438.72;;;12.48;65.55
80938;BME280;70395;51.382;7.074;2024-02-14T08:33:29;100439.25;;;12.52;65.29
80938;BME280;70395;51.382;7.074;2024-02-14T08:35:55;100448.00;;;12.54;65.34
80938;BME280;70395;51.382;7.074;2024-02-14T08:38:23;100443.16;;;12.57;65.32
80938;BME280;70395;51.382;7.074;2024-02-14T08:40:49;100451.44;;;12.64;65.17
80938;BME280;70395;51.382;7.074;2024-02-14T08:43:14;100452.81;;;12.68;65.23
80938;BME280;70395;51.382;7.074;2024-02-14T08:45:41;100444.06;;;12.66;65.26
80938;BME280;70395;51.382;7.074;2024-02-14T08:48:07;100456.84;;;12.64;65.15
80938;BME280;70395;51.382;7.074;2024-02-14T08:50:32;100457.84;;;12.63;65.19
80938;BME280;70395;51.382;7.074;2024-02-14T08:52:58;100457.84;;;12.63;65.21
80938;BME280;70395;51.382;7.074;2024-02-14T08:55:24;100457.53;;;12.66;65.09
80938;BME280;70395;51.382;7.074;2024-02-14T08:57:50;100468.97;;;12.68;65.14
80938;BME280;70395;51.382;7.074;2024-02-14T09:00:16;100469.81;;;12.69;64.93
80938;BME280;70395;51.382;7.074;2024-02-14T09:02:46;100464.28;;;12.70;64.84
80938;BME280;70395;51.382;7.074;2024-02-14T09:05:15;100472.03;;;12.73;65.04
80938;BME280;70395;51.382;7.074;2024-02-14T09:07:42;100470.75;;;12.78;64.94
80938;BME280;70395;51.382;7.074;2024-02-14T09:10:10;100470.28;;;12.82;64.82
80938;BME280;70395;51.382;7.074;2024-02-14T09:12:38;100468.47;;;12.91;64.46
80938;BME280;70395;51.382;7.074;2024-02-14T09:15:07;100462.63;;;12.96;64.08
80938;BME280;70395;51.382;7.074;2024-02-14T09:17:33;100462.00;;;13.02;64.22
80938;BME280;70395;51.382;7.074;2024-02-14T09:19:59;100462.00;;;13.02;63.99
80938;BME280;70395;51.382;7.074;2024-02-14T09:22:25;100467.91;;;13.06;64.07
80938;BME280;70395;51.382;7.074;2024-02-14T09:24:51;100472.13;;;13.09;63.78
80938;BME280;70395;51.382;7.074;2024-02-14T09:27:17;100479.34;;;13.08;63.86
80938;BME280;70395;51.382;7.074;2024-02-14T09:29:43;100483.53;;;13.02;63.99
80938;BME280;70395;51.382;7.074;2024-02-14T09:32:09;100487.84;;;12.95;64.18
80938;BME280;70395;51.382;7.074;2024-02-14T09:34:35;100485.94;;;12.87;64.49
80938;BME280;70395;51.382;7.074;2024-02-14T09:37:01;100478.47;;;12.81;64.55
80938;BME280;70395;51.382;7.074;2024-02-14T09:39:27;100476.91;;;12.70;65.18
80938;BME280;70395;51.382;7.074;2024-02-14T09:41:58;100474.44;;;12.58;65.38
80938;BME280;70395;51.382;7.074;2024-02-14T09:44:27;100475.06;;;12.52;65.43
80938;BME280;70395;51.382;7.074;2024-02-14T09:46:56;100468.31;;;12.48;65.57
80938;BME280;70395;51.382;7.074;2024-02-14T09:49:23;100480.59;;;12.50;65.79
80938;BME280;70395;51.382;7.074;2024-02-14T09:51:50;100479.28;;;12.55;65.73
80938;BME280;70395;51.382;7.074;2024-02-14T09:54:18;100479.00;;;12.58;65.52
80938;BME280;70395;51.382;7.074;2024-02-14T09:56:53;100483.69;;;12.56;65.67
80938;BME280;70395;51.382;7.074;2024-02-14T09:59:24;100486.38;;;12.56;65.77
80938;BME280;70395;51.382;7.074;2024-02-14T10:01:50;100484.50;;;12.56;65.53
80938;BME280;70395;51.382;7.074;2024-02-14T10:04:17;100490.06;;;12.55;65.77
80938;BME280;70395;51.382;7.074;2024-02-14T10:06:45;100488.50;;;12.52;66.43
80938;BME280;70395;51.382;7.074;2024-02-14T10:09:11;100494.06;;;12.50;66.34
80938;BME280;70395;51.382;7.074;2024-02-14T10:11:37;100494.06;;;12.50;66.34
80938;BME280;70395;51.382;7.074;2024-02-14T10:14:06;100502.25;;;12.49;66.40
80938;BME280;70395;51.382;7.074;2024-02-14T10:16:35;100499.28;;;12.52;66.10
80938;BME280;70395;51.382;7.074;2024-02-14T10:19:01;100493.59;;;12.55;65.90
80938;BME280;70395;51.382;7.074;2024-02-14T10:21:30;100495.13;;;12.58;66.10
80938;BME280;70395;51.382;7.074;2024-02-14T10:24:01;100505.41;;;12.63;65.84
80938;BME280;70395;51.382;7.074;2024-02-14T10:26:29;100507.25;;;12.62;66.11
80938;BME280;70395;51.382;7.074;2024-02-14T10:28:57;100510.81;;;12.63;66.40
80938;BME280;70395;51.382;7.074;2024-02-14T10:31:26;100504.41;;;12.64;66.20
80938;BME280;70395;51.382;7.074;2024-02-14T10:33:55;100506.50;;;12.70;66.30
80938;BME280;70395;51.382;7.074;2024-02-14T10:36:24;100513.63;;;12.79;66.52
80938;BME280;70395;51.382;7.074;2024-02-14T10:38:51;100510.47;;;12.84;65.92
80938;BME280;70395;51.382;7.074;2024-02-14T10:41:17;100514.53;;;12.88;66.38
80938;BME280;70395;51.382;7.074;2024-02-14T10:43:43;100508.00;;;12.91;66.11
80938;BME280;70395;51.382;7.074;2024-02-14T10:46:23;100513.53;;;12.89;65.94
80938;BME280;70395;51.382;7.074;2024-02-14T10:48:58;100514.53;;;12.88;66.31
80938;BME280;70395;51.382;7.074;2024-02-14T10:51:29;100518.06;;;12.89;65.75
80938;BME280;70395;51.382;7.074;2024-02-14T10:53:58;100502.94;;;12.88;66.15
80938;BME280;70395;51.382;7.074;2024-02-14T10:56:29;100513.00;;;12.86;65.86
80938;BME280;70395;51.382;7.074;2024-02-14T10:58:57;100510.47;;;12.84;66.27
80938;BME280;70395;51.382;7.074;2024-02-14T11:01:28;100519.00;;;12.79;66.58
80938;BME280;70395;51.382;7.074;2024-02-14T11:04:00;100516.63;;;12.76;66.83
80938;BME280;70395;51.382;7.074;2024-02-14T11:06:26;100519.19;;;12.78;66.98
80938;BME280;70395;51.382;7.074;2024-02-14T11:09:03;100512.09;;;12.77;66.90
80938;BME280;70395;51.382;7.074;2024-02-14T11:11:33;100518.16;;;12.79;66.80
80938;BME280;70395;51.382;7.074;2024-02-14T11:13:59;100506.53;;;12.78;66.88
80938;BME280;70395;51.382;7.074;2024-02-14T11:16:30;100504.19;;;12.75;67.15
80938;BME280;70395;51.382;7.074;2024-02-14T11:19:11;100507.69;;;12.76;67.09
80938;BME280;70395;51.382;7.074;2024-02-14T11:21:46;100519.47;;;12.75;67.19
80938;BME280;70395;51.382;7.074;2024-02-14T11:24:15;100521.88;;;12.78;67.52
80938;BME280;70395;51.382;7.074;2024-02-14T11:26:51;100517.47;;;12.77;67.42
80938;BME280;70395;51.382;7.074;2024-02-14T11:29:18;100515.16;;;12.82;67.48
80938;BME280;70395;51.382;7.074;2024-02-14T11:31:45;100516.53;;;12.86;67.72
80938;BME280;70395;51.382;7.074;2024-02-14T11:34:14;100518.75;;;12.91;67.20
80938;BME280;70395;51.382;7.074;2024-02-14T11:36:45;100518.16;;;12.97;67.21
80938;BME280;70395;51.382;7.074;2024-02-14T11:39:11;100519.50;;;13.01;67.19
80938;BME280;70395;51.382;7.074;2024-02-14T11:41:40;100511.13;;;13.04;67.28
80938;BME280;70395;51.382;7.074;2024-02-14T11:44:08;100512.34;;;13.10;67.31
80938;BME280;70395;51.382;7.074;2024-02-14T11:46:36;100495.56;;;13.16;67.08
80938;BME280;70395;51.382;7.074;2024-02-14T11:49:04;100505.69;;;13.23;66.89
80938;BME280;70395;51.382;7.074;2024-02-14T11:51:34;100501.34;;;13.30;66.91
80938;BME280;70395;51.382;7.074;2024-02-14T11:54:05;100495.88;;;13.40;66.99
80938;BME280;70395;51.382;7.074;2024-02-14T11:56:39;100512.25;;;13.47;66.75
80938;BME280;70395;51.382;7.074;2024-02-14T11:59:07;100507.91;;;13.54;66.28
80938;BME280;70395;51.382;7.074;2024-02-14T12:01:35;100505.44;;;13.61;66.46
80938;BME280;70395;51.382;7.074;2024-02-14T12:04:05;100502.56;;;13.62;66.21
80938;BME280;70395;51.382;7.074;2024-02-14T12:06:35;100503.13;;;13.66;66.37
80938;BME280;70395;51.382;7.074;2024-02-14T12:09:05;100505.31;;;13.71;66.09
80938;BME280;70395;51.382;7.074;2024-02-14T12:11:36;100504.53;;;13.79;66.04
80938;BME280;70395;51.382;7.074;2024-02-14T12:14:09;100497.63;;;13.84;65.90
80938;BME280;70395;51.382;7.074;2024-02-14T12:16:38;100499.81;;;13.89;65.38
80938;BME280;70395;51.382;7.074;2024-02-14T12:19:08;100493.13;;;13.93;65.65
80938;BME280;70395;51.382;7.074;2024-02-14T12:21:39;100492.75;;;13.96;65.40
80938;BME280;70395;51.382;7.074;2024-02-14T12:24:12;100496.13;;;13.99;65.62
80938;BME280;70395;51.382;7.074;2024-02-14T12:26:42;100499.88;;;14.06;65.22
80938;BME280;70395;51.382;7.074;2024-02-14T12:29:11;100507.50;;;14.11;65.17
80938;BME280;70395;51.382;7.074;2024-02-14T12:31:38;100497.88;;;14.16;65.71
80938;BME280;70395;51.382;7.074;2024-02-14T12:34:04;100495.34;;;14.23;65.42
80938;BME280;70395;51.382;7.074;2024-02-14T12:36:31;100499.94;;;14.31;65.48
80938;BME280;70395;51.382;7.074;2024-02-14T12:38:59;100488.81;;;14.34;65.55
80938;BME280;70395;51.382;7.074;2024-02-14T12:41:28;100500.28;;;14.36;65.56
80938;BME280;70395;51.382;7.074;2024-02-14T12:43:56;100496.91;;;14.34;65.83
80938;BME280;70395;51.382;7.074;2024-02-14T12:46:22;100497.41;;;14.29;65.92
80938;BME280;70395;51.382;7.074;2024-02-14T12:48:48;100496.06;;;14.25;65.76
80938;BME280;70395;51.382;7.074;2024-02-14T12:51:14;100496.72;;;14.27;66.02
80938;BME280;70395;51.382;7.074;2024-02-14T12:53:40;100504.66;;;14.29;66.21